Time;durP1;ratioP1;P1;durP2;ratioP2;P2;SDS_P1;SDS_P2;PMS_P1;PMS_P2;Temp;Humidity;BMP_temperature;BMP_pressure;BME280_temperature;BME280_humidity;BME280_pressure;Samples;Min_cycle;Max_cycle;Signal;HPM_P1;HPM_P2
2021/04/27 00:01:48;;;;;;;6.68;2.60;;;;;;;4.93;59.64;101458.91;4916514;29;20059;-48
2021/04/27 00:04:14;;;;;;;6.03;2.53;;;;;;;4.89;59.78;101457.31;4915983;29;20123;-48
2021/04/27 00:06:41;;;;;;;5.50;2.30;;;;;;;4.89;59.87;101458.19;4915988;29;20048;-48
2021/04/27 00:09:08;;;;;;;6.63;2.67;;;;;;;4.79;60.10;101450.69;4917423;29;20055;-47
2021/04/27 00:11:35;;;;;;;5.18;2.55;;;;;;;4.81;60.14;101443.66;4917274;29;20361;-47
2021/04/27 00:14:02;;;;;;;5.75;2.70;;;;;;;4.77;60.45;101442.06;4915662;29;20048;-49
2021/04/27 00:16:29;;;;;;;6.20;2.55;;;;;;;4.79;60.05;101437.66;4917487;29;20051;-48
2021/04/27 00:18:55;;;;;;;7.78;2.90;;;;;;;4.76;60.64;101445.56;4915140;29;20408;-49
2021/04/27 00:21:22;;;;;;;5.43;2.50;;;;;;;4.66;60.52;101439.78;4916703;29;20058;-50
2021/04/27 00:23:50;;;;;;;8.15;2.55;;;;;;;4.62;60.69;101427.75;4915496;29;20138;-50
2021/04/27 00:26:16;;;;;;;7.72;3.38;;;;;;;4.60;60.54;101432.16;4915046;29;20520;-48
2021/04/27 00:28:42;;;;;;;7.53;2.90;;;;;;;4.54;60.97;101428.84;4915089;29;20067;-49
2021/04/27 00:31:09;;;;;;;7.15;2.67;;;;;;;4.47;61.18;101418.66;4915139;29;20059;-47
2021/04/27 00:33:35;;;;;;;6.30;2.70;;;;;;;4.37;61.48;101420.69;4915019;29;20052;-50
2021/04/27 00:36:03;;;;;;;6.82;2.50;;;;;;;4.35;61.74;101419.84;4916144;29;20068;-49
2021/04/27 00:38:29;;;;;;;5.95;2.70;;;;;;;4.34;61.33;101412.97;4915785;29;20052;-48
2021/04/27 00:40:55;;;;;;;6.45;2.58;;;;;;;4.26;61.96;101414.94;4915285;29;20455;-49
2021/04/27 00:43:22;;;;;;;7.43;3.17;;;;;;;4.22;62.22;101415.00;4916516;29;20098;-47
2021/04/27 00:45:48;;;;;;;7.55;2.80;;;;;;;4.19;62.27;101411.66;4915540;29;20044;-49
2021/04/27 00:48:15;;;;;;;6.32;2.95;;;;;;;4.22;62.15;101412.41;4914759;29;20059;-51
2021/04/27 00:50:42;;;;;;;8.02;2.85;;;;;;;4.26;62.02;101407.97;4914101;29;20056;-48
2021/04/27 00:53:08;;;;;;;10.63;2.72;;;;;;;4.23;62.09;101405.47;4915213;29;20541;-46
2021/04/27 00:55:35;;;;;;;5.55;2.80;;;;;;;4.19;62.31;101403.84;4915126;29;20056;-47
2021/04/27 00:58:02;;;;;;;7.90;3.22;;;;;;;4.09;62.96;101403.28;4930869;29;20081;-47
2021/04/27 01:00:34;;;;;;;6.32;2.72;;;;;;;4.02;62.96;101402.59;4914861;29;20488;-50
2021/04/27 01:03:02;;;;;;;6.80;2.80;;;;;;;4.00;63.21;101398.34;4916204;29;20059;-47
2021/04/27 01:05:31;;;;;;;7.68;2.78;;;;;;;3.97;63.00;101386.25;4897904;29;20044;-48
2021/04/27 01:08:17;;;;;;;7.00;2.97;;;;;;;4.02;63.05;101392.19;4915368;29;20059;-46
2021/04/27 01:10:49;;;;;;;6.95;2.90;;;;;;;4.03;63.10;101393.03;4899212;29;20071;-48
2021/04/27 01:13:45;;;;;;;10.02;3.22;;;;;;;3.93;63.57;101376.84;4915841;29;20443;-49
2021/04/27 01:16:12;;;;;;;7.00;3.20;;;;;;;3.83;64.13;101371.03;4889177;29;20067;-49
2021/04/27 01:18:41;;;;;;;7.70;2.90;;;;;;;3.88;63.85;101373.50;4913313;29;20464;-49
2021/04/27 01:21:09;;;;;;;10.60;3.17;;;;;;;3.81;64.04;101372.81;4914657;29;20412;-46
2021/04/27 01:23:46;;;;;;;7.40;3.28;;;;;;;3.84;63.92;101372.72;4914533;29;20056;-50
2021/04/27 01:26:30;;;;;;;6.97;2.88;;;;;;;3.87;63.62;101372.66;4915020;29;20059;-50
2021/04/27 01:28:57;;;;;;;8.13;3.33;;;;;;;3.75;64.27;101364.34;4915237;29;20056;-47
2021/04/27 01:31:24;;;;;;;6.78;3.53;;;;;;;3.69;64.45;101363.59;4914479;29;20056;-51
2021/04/27 01:33:51;;;;;;;8.45;3.63;;;;;;;3.63;64.95;101369.00;4914013;29;20930;-48
2021/04/27 01:36:17;;;;;;;7.63;3.15;;;;;;;3.59;64.91;101372.56;4914235;29;20527;-48
2021/04/27 01:38:44;;;;;;;7.40;3.50;;;;;;;3.60;64.57;101365.63;4915212;29;20052;-52
2021/04/27 01:41:10;;;;;;;5.82;3.10;;;;;;;3.57;64.96;101363.94;4914260;29;20403;-48
2021/04/27 01:43:37;;;;;;;8.88;3.38;;;;;;;3.63;64.72;101369.00;4914962;29;20063;-53
2021/04/27 01:46:06;;;;;;;6.88;3.17;;;;;;;3.61;65.09;101362.13;4914431;29;20063;-52
2021/04/27 01:48:33;;;;;;;7.63;3.38;;;;;;;3.61;65.19;101355.16;4913814;29;20114;-48
2021/04/27 01:51:00;;;;;;;8.55;3.67;;;;;;;3.54;65.51;101351.91;4929555;29;20143;-49
2021/04/27 01:53:27;;;;;;;6.00;3.22;;;;;;;3.49;65.48;101345.97;4915078;29;20495;-50
2021/04/27 01:55:53;;;;;;;7.18;3.28;;;;;;;3.43;65.68;101346.13;4915279;29;20055;-49
2021/04/27 01:58:19;;;;;;;9.88;3.53;;;;;;;3.40;66.17;101348.81;4915155;29;20415;-48
2021/04/27 02:00:46;;;;;;;8.30;3.58;;;;;;;3.38;66.32;101343.66;4914965;29;20051;-47
2021/04/27 02:03:12;;;;;;;6.97;2.97;;;;;;;3.41;65.90;101352.25;4929181;29;20399;-48
2021/04/27 02:05:39;;;;;;;7.85;3.50;;;;;;;3.35;66.17;101346.34;4912994;29;20523;-50
2021/04/27 02:08:06;;;;;;;8.90;3.35;;;;;;;3.44;65.72;101340.03;4915608;29;20112;-46
2021/04/27 02:10:33;;;;;;;9.68;3.80;;;;;;;3.39;66.13;101344.50;4898313;29;20056;-48
2021/04/27 02:13:06;;;;;;;9.43;3.45;;;;;;;3.35;65.91;101338.56;4898488;29;20060;-47
2021/04/27 02:15:34;;;;;;;7.93;3.90;;;;;;;3.23;66.56;101333.66;4915038;29;20052;-49
2021/04/27 02:18:09;;;;;;;10.27;3.88;;;;;;;3.24;66.55;101332.75;4913959;29;20040;-50
2021/04/27 02:20:37;;;;;;;8.63;4.30;;;;;;;3.28;66.17;101329.19;4913587;29;20052;-49
2021/04/27 02:23:03;;;;;;;10.63;3.38;;;;;;;3.31;66.40;101325.66;4898048;29;20127;-51
2021/04/27 02:25:30;;;;;;;8.00;4.20;;;;;;;3.31;66.31;101330.84;4914992;29;20056;-50
2021/04/27 02:27:57;;;;;;;9.52;3.90;;;;;;;3.17;66.68;101321.69;4913824;29;20052;-51
2021/04/27 02:30:24;;;;;;;9.15;3.47;;;;;;;3.10;67.21;101322.75;4897999;29;20044;-51
2021/04/27 02:32:51;;;;;;;7.45;4.07;;;;;;;3.08;67.76;101323.66;4913180;29;20056;-48
2021/04/27 02:35:19;;;;;;;14.90;4.38;;;;;;;3.08;67.88;101319.34;4912677;29;20052;-48
2021/04/27 02:37:48;;;;;;;7.72;3.97;;;;;;;3.13;67.62;101321.81;4914174;29;20510;-51
2021/04/27 02:40:16;;;;;;;8.52;3.55;;;;;;;3.05;67.97;101322.00;4914518;29;20051;-49
2021/04/27 02:42:48;;;;;;;7.13;3.38;;;;;;;3.06;67.83;101322.88;4913355;29;20070;-50
2021/04/27 02:45:15;;;;;;;7.95;3.58;;;;;;;3.16;67.21;101319.13;4913096;29;20063;-49
2021/04/27 02:47:41;;;;;;;8.63;3.67;;;;;;;3.09;67.60;101315.84;4913302;29;20415;-48
2021/04/27 02:50:08;;;;;;;9.55;3.80;;;;;;;3.10;67.20;101314.94;4916923;29;20056;-49
2021/04/27 02:52:34;;;;;;;8.95;4.68;;;;;;;3.09;67.62;101305.44;4918814;29;20107;-49
2021/04/27 02:55:01;;;;;;;8.70;3.83;;;;;;;3.11;67.58;101316.66;4918154;29;20063;-49
2021/04/27 02:57:27;;;;;;;8.30;3.85;;;;;;;3.00;67.92;101313.47;4918678;29;20056;-51
2021/04/27 02:59:53;;;;;;;7.78;3.42;;;;;;;3.08;67.39;101311.56;4918129;29;20048;-51
2021/04/27 03:02:20;;;;;;;8.55;3.75;;;;;;;2.97;67.77;101306.63;4918528;29;20388;-51
2021/04/27 03:04:46;;;;;;;10.48;3.88;;;;;;;3.02;67.67;101301.31;4916599;29;20102;-51
2021/04/27 03:07:12;;;;;;;8.30;3.53;;;;;;;2.93;68.01;101296.34;4917382;29;20047;-49
2021/04/27 03:09:38;;;;;;;9.98;4.20;;;;;;;2.96;67.78;101297.13;4917290;29;20048;-50
2021/04/27 03:12:05;;;;;;;8.55;3.75;;;;;;;2.91;67.76;101295.53;4918373;29;20415;-49
2021/04/27 03:14:32;;;;;;;9.77;3.53;;;;;;;2.93;67.67;101288.53;4918024;29;20052;-50
2021/04/27 03:16:58;;;;;;;7.55;3.55;;;;;;;2.91;67.78;101282.56;4918206;29;20044;-47
2021/04/27 03:19:25;;;;;;;8.82;3.85;;;;;;;2.87;67.92;101295.59;4916369;29;20048;-50
2021/04/27 03:21:51;;;;;;;7.68;3.67;;;;;;;2.90;67.72;101288.63;4916982;29;20115;-51
2021/04/27 03:24:17;;;;;;;7.53;3.67;;;;;;;2.93;67.49;101293.75;4901581;29;20059;-52
2021/04/27 03:26:44;;;;;;;8.70;4.18;;;;;;;2.83;68.20;101288.78;4918281;29;20062;-52
2021/04/27 03:29:10;;;;;;;8.32;4.00;;;;;;;2.83;67.96;101291.38;4917524;29;20052;-48
2021/04/27 03:31:36;;;;;;;7.95;3.95;;;;;;;2.83;68.15;101296.56;4917923;29;20452;-47
2021/04/27 03:34:03;;;;;;;8.27;4.07;;;;;;;2.84;67.65;101290.50;4915858;29;20408;-52
2021/04/27 03:36:29;;;;;;;8.57;4.25;;;;;;;2.88;67.64;101292.13;4917532;29;20080;-46
2021/04/27 03:38:57;;;;;;;8.85;4.15;;;;;;;2.74;68.43;101289.03;4917662;29;20134;-51
2021/04/27 03:41:23;;;;;;;7.32;3.85;;;;;;;2.77;68.25;101288.94;4916666;29;20099;-51
2021/04/27 03:43:50;;;;;;;8.65;4.53;;;;;;;2.83;68.07;101282.75;4916164;29;20507;-48
2021/04/27 03:46:16;;;;;;;8.48;3.65;;;;;;;2.70;68.81;101290.00;4918057;29;20067;-49
2021/04/27 03:48:42;;;;;;;9.93;3.58;;;;;;;2.74;68.38;101295.97;4916049;29;20060;-50
2021/04/27 03:51:09;;;;;;;9.38;4.00;;;;;;;2.65;68.72;101292.69;4900710;29;20044;-51
2021/04/27 03:53:35;;;;;;;10.75;4.00;;;;;;;2.75;68.95;101290.72;4917545;29;20048;-46
2021/04/27 03:56:02;;;;;;;10.15;4.72;;;;;;;2.67;68.91;101285.72;4931908;29;20052;-48
2021/04/27 03:58:28;;;;;;;9.10;4.75;;;;;;;2.67;68.98;101284.88;4917391;29;20074;-47
2021/04/27 04:00:54;;;;;;;8.50;4.32;;;;;;;2.56;68.99;101292.91;4914921;29;20389;-48
2021/04/27 04:03:21;;;;;;;8.52;4.28;;;;;;;2.56;69.02;101282.53;4916846;29;20048;-51
2021/04/27 04:05:49;;;;;;;10.13;4.30;;;;;;;2.62;68.54;101290.19;4916392;29;20518;-52
2021/04/27 04:08:15;;;;;;;10.02;4.18;;;;;;;2.59;68.53;101285.06;4916410;29;20048;-47
2021/04/27 04:10:41;;;;;;;8.20;4.00;;;;;;;2.61;68.34;101288.47;4916212;29;20147;-51
2021/04/27 04:13:08;;;;;;;10.02;4.03;;;;;;;2.51;69.25;101287.84;4915566;29;20056;-47
2021/04/27 04:15:34;;;;;;;11.90;4.80;;;;;;;2.47;69.29;101291.41;4915776;29;20048;-50
2021/04/27 04:18:00;;;;;;;8.35;4.22;;;;;;;2.50;69.21;101293.94;4916056;29;20147;-46
2021/04/27 04:20:27;;;;;;;7.45;4.10;;;;;;;2.54;68.85;101287.78;4914207;29;20798;-50
2021/04/27 04:22:53;;;;;;;9.85;4.85;;;;;;;2.47;69.64;101281.03;4916127;29;20044;-47
2021/04/27 04:25:20;;;;;;;10.70;5.43;;;;;;;2.47;69.84;101280.19;4915663;29;20059;-49
2021/04/27 04:27:46;;;;;;;10.38;4.47;;;;;;;2.50;69.46;101287.91;4917072;29;20052;-49
2021/04/27 04:30:16;;;;;;;9.85;4.40;;;;;;;2.52;69.41;101281.78;4916365;29;20048;-47
2021/04/27 04:32:43;;;;;;;8.43;4.85;;;;;;;2.58;69.34;101283.34;4931402;29;20533;-50
2021/04/27 04:35:11;;;;;;;9.60;4.47;;;;;;;2.53;69.91;101286.06;4913546;29;20060;-46
2021/04/27 04:37:38;;;;;;;10.88;4.35;;;;;;;2.52;69.99;101289.56;4915696;29;20058;-49
2021/04/27 04:40:06;;;;;;;9.40;5.03;;;;;;;2.54;69.84;101292.97;4917005;29;20472;-51
2021/04/27 04:42:32;;;;;;;9.88;5.30;;;;;;;2.52;69.66;101284.38;4916722;29;20052;-46
2021/04/27 04:44:58;;;;;;;11.70;5.10;;;;;;;2.58;69.59;101283.34;4916537;29;20071;-45
2021/04/27 04:47:25;;;;;;;10.20;5.47;;;;;;;2.51;69.92;101287.84;4916791;29;20088;-49
2021/04/27 04:49:51;;;;;;;10.85;4.60;;;;;;;2.56;69.84;101289.47;4914514;29;20052;-46
2021/04/27 04:52:17;;;;;;;9.63;4.43;;;;;;;2.58;69.82;101282.50;4915791;29;20087;-49
2021/04/27 04:54:44;;;;;;;8.88;4.38;;;;;;;2.62;69.57;101282.41;4914832;29;20044;-46
2021/04/27 04:57:10;;;;;;;11.55;4.72;;;;;;;2.62;69.32;101281.53;4916397;29;20491;-49
2021/04/27 04:59:37;;;;;;;10.10;4.82;;;;;;;2.64;69.90;101280.59;4915870;29;20055;-51
2021/04/27 05:02:03;;;;;;;11.82;5.22;;;;;;;2.68;69.53;101283.97;4915367;29;20407;-46
2021/04/27 05:04:30;;;;;;;10.85;5.10;;;;;;;2.68;69.34;101289.19;4912907;29;20063;-53
2021/04/27 05:07:02;;;;;;;9.18;4.75;;;;;;;2.69;69.37;101285.69;4916405;29;20389;-49
2021/04/27 05:09:29;;;;;;;12.68;5.15;;;;;;;2.75;68.83;101280.31;4916336;29;20411;-48
2021/04/27 05:11:56;;;;;;;9.88;5.07;;;;;;;2.75;68.81;101282.09;4915974;29;20044;-49
2021/04/27 05:14:23;;;;;;;10.73;4.60;;;;;;;2.75;68.67;101285.53;4915533;29;20435;-49
2021/04/27 05:16:50;;;;;;;9.80;4.93;;;;;;;2.81;68.37;101284.50;4914997;29;20044;-45
2021/04/27 05:19:17;;;;;;;10.95;5.43;;;;;;;2.85;67.62;101281.81;4914090;29;20044;-52
2021/04/27 05:21:43;;;;;;;8.90;5.15;;;;;;;2.82;67.57;101279.28;4916057;29;20515;-47
2021/04/27 05:24:10;;;;;;;9.00;4.63;;;;;;;2.79;67.39;101279.34;4898946;29;20067;-46
2021/04/27 05:26:36;;;;;;;11.85;5.70;;;;;;;2.90;67.43;101283.44;4914774;29;20133;-50
2021/04/27 05:29:03;;;;;;;12.38;5.78;;;;;;;2.79;67.71;101283.72;4915295;29;20056;-47
2021/04/27 05:31:29;;;;;;;11.65;5.28;;;;;;;2.78;67.89;101285.47;4914946;29;20048;-49
2021/04/27 05:33:56;;;;;;;12.02;5.22;;;;;;;2.81;67.51;101279.31;4913815;29;20052;-49
2021/04/27 05:36:22;;;;;;;13.77;5.68;;;;;;;2.86;67.16;101280.06;4915265;29;20064;-47
2021/04/27 05:38:48;;;;;;;9.60;5.68;;;;;;;2.91;67.04;101279.94;4916196;29;20047;-48
2021/04/27 05:41:15;;;;;;;12.65;5.50;;;;;;;3.01;66.59;101276.19;4915439;29;20185;-47
2021/04/27 05:43:41;;;;;;;9.88;5.50;;;;;;;3.05;66.63;101277.81;4914174;29;20400;-51
2021/04/27 05:46:08;;;;;;;13.30;5.40;;;;;;;3.13;66.09;101273.25;4914491;29;20071;-50
2021/04/27 05:48:35;;;;;;;11.70;4.78;;;;;;;3.16;66.04;101270.59;4913791;29;20099;-46
2021/04/27 05:51:01;;;;;;;10.63;5.40;;;;;;;3.21;65.60;101271.31;4914184;29;20040;-51
2021/04/27 05:53:28;;;;;;;9.30;4.90;;;;;;;3.29;65.70;101280.66;4914053;29;20056;-50
2021/04/27 05:55:54;;;;;;;13.10;5.35;;;;;;;3.35;64.80;101270.94;4898537;29;20055;-52
2021/04/27 05:58:21;;;;;;;11.40;4.82;;;;;;;3.46;64.54;101278.41;4914303;29;20048;-48
2021/04/27 06:00:47;;;;;;;9.95;5.57;;;;;;;3.57;64.79;101280.72;4915415;29;20083;-49
2021/04/27 06:03:32;;;;;;;16.33;5.93;;;;;;;3.65;64.10;101277.91;4912735;29;20056;-49
2021/04/27 06:05:58;;;;;;;13.65;5.28;;;;;;;3.69;63.94;101280.34;4929643;29;20040;-52
2021/04/27 06:08:25;;;;;;;9.85;5.43;;;;;;;3.78;63.99;101283.59;4913915;29;20048;-48
2021/04/27 06:10:51;;;;;;;10.85;5.68;;;;;;;3.86;63.65;101285.06;4915220;29;20040;-50
2021/04/27 06:13:17;;;;;;;9.52;4.90;;;;;;;3.99;62.89;101282.94;4911557;29;20040;-47
2021/04/27 06:15:44;;;;;;;9.57;5.10;;;;;;;4.09;62.20;101283.53;4914359;29;20063;-48
2021/04/27 06:18:10;;;;;;;9.65;5.32;;;;;;;4.16;61.80;101276.34;4914131;29;20580;-48
2021/04/27 06:20:36;;;;;;;7.93;4.38;;;;;;;4.40;60.89;101283.41;4913324;29;20061;-47
2021/04/27 06:23:03;;;;;;;8.20;4.68;;;;;;;4.39;60.86;101276.50;4913082;29;20495;-48
2021/04/27 06:25:29;;;;;;;10.50;4.35;;;;;;;4.50;60.85;101272.66;4914686;29;20062;-47
2021/04/27 06:27:56;;;;;;;9.00;4.60;;;;;;;4.60;60.36;101273.25;4913310;29;20530;-49
2021/04/27 06:30:23;;;;;;;9.77;4.90;;;;;;;4.68;60.67;101281.66;4914375;29;20044;-51
2021/04/27 06:32:52;;;;;;;10.70;5.43;;;;;;;4.80;59.42;101277.75;4913093;29;20060;-48
2021/04/27 06:35:20;;;;;;;8.02;4.35;;;;;;;4.96;59.15;101272.88;4912873;29;20056;-49
2021/04/27 06:37:47;;;;;;;10.38;4.40;;;;;;;5.04;57.92;101283.88;4913244;29;20059;-46
2021/04/27 06:40:14;;;;;;;9.25;4.13;;;;;;;5.19;57.75;101283.34;4913244;29;20052;-50
2021/04/27 06:42:40;;;;;;;13.55;4.82;;;;;;;5.23;57.49;101281.47;4913439;29;20044;-48
2021/04/27 06:45:07;;;;;;;7.03;4.10;;;;;;;5.35;57.06;101283.66;4914105;29;20062;-49
2021/04/27 06:47:34;;;;;;;9.13;4.82;;;;;;;5.53;56.64;101287.34;4912827;29;20055;-50
2021/04/27 06:50:00;;;;;;;7.72;4.65;;;;;;;5.66;55.60;101284.28;4911550;29;20080;-47
2021/04/27 06:52:27;;;;;;;9.20;4.55;;;;;;;5.81;55.71;101280.22;4913433;29;20040;-49
2021/04/27 06:54:53;;;;;;;8.80;4.75;;;;;;;5.92;56.02;101284.13;4913943;29;20056;-47
2021/04/27 06:57:20;;;;;;;8.32;4.70;;;;;;;6.12;54.89;101289.53;4912878;29;20415;-49
2021/04/27 06:59:46;;;;;;;12.48;4.55;;;;;;;6.23;54.78;101276.88;4914047;29;20055;-45
2021/04/27 07:02:12;;;;;;;7.90;4.50;;;;;;;6.46;53.88;101275.94;4914362;29;20079;-51
2021/04/27 07:04:41;;;;;;;7.82;4.50;;;;;;;6.63;52.80;101271.81;4895604;29;20567;-53
2021/04/27 07:07:08;;;;;;;9.80;4.32;;;;;;;6.73;52.19;101263.50;4914183;29;20415;-51
2021/04/27 07:09:35;;;;;;;9.60;5.13;;;;;;;6.90;52.02;101268.03;4912930;29;20060;-52
2021/04/27 07:12:02;;;;;;;11.27;4.72;;;;;;;7.06;52.06;101256.88;4914435;29;20059;-47
2021/04/27 07:14:28;;;;;;;8.00;4.55;;;;;;;7.17;52.54;101267.75;4896875;29;20570;-50
2021/04/27 07:16:55;;;;;;;8.43;4.50;;;;;;;7.47;51.14;101266.44;4912658;29;20106;-47
2021/04/27 07:19:22;;;;;;;9.90;4.40;;;;;;;7.65;49.19;101262.13;4912422;29;20044;-48
2021/04/27 07:21:50;;;;;;;9.05;4.55;;;;;;;7.87;49.60;101260.22;4913031;29;20049;-50
2021/04/27 07:24:17;;;;;;;8.27;4.53;;;;;;;7.94;49.49;101256.38;4912928;29;20132;-52
2021/04/27 07:26:46;;;;;;;9.38;4.82;;;;;;;8.16;49.05;101254.50;4913515;29;20056;-47
2021/04/27 07:29:14;;;;;;;10.05;4.70;;;;;;;8.39;47.79;101253.38;4907663;29;20053;-49
2021/04/27 07:31:41;;;;;;;8.13;3.75;;;;;;;8.65;46.42;101248.63;4911344;29;20036;-48
2021/04/27 07:34:07;;;;;;;10.75;4.60;;;;;;;8.83;44.59;101244.22;4909231;29;20056;-49
2021/04/27 07:36:35;;;;;;;7.65;3.97;;;;;;;9.03;43.80;101246.66;4897922;29;20143;-50
2021/04/27 07:39:06;;;;;;;7.38;3.55;;;;;;;9.34;42.98;101244.19;4909184;29;20040;-52
2021/04/27 07:41:32;;;;;;;6.82;3.50;;;;;;;9.53;42.38;101244.91;4917162;29;20134;-48
2021/04/27 07:43:59;;;;;;;6.53;2.95;;;;;;;9.70;42.29;101243.13;4915455;29;20052;-48
2021/04/27 07:46:25;;;;;;;5.88;2.88;;;;;;;9.98;42.14;101240.66;4915865;29;20539;-47
2021/04/27 07:48:52;;;;;;;5.82;2.92;;;;;;;10.18;40.36;101237.84;4914321;29;20833;-51
2021/04/27 07:51:19;;;;;;;5.57;2.58;;;;;;;10.39;37.39;101243.66;4917060;29;20076;-50
2021/04/27 07:53:46;;;;;;;6.72;3.13;;;;;;;10.48;39.87;101236.09;4917485;29;20044;-52
2021/04/27 07:56:12;;;;;;;7.10;2.83;;;;;;;10.54;40.39;101232.25;4915201;29;20052;-51
2021/04/27 07:58:38;;;;;;;7.63;2.90;;;;;;;10.51;37.72;101224.53;4915360;29;20056;-49
2021/04/27 08:01:05;;;;;;;5.47;2.90;;;;;;;10.58;36.26;101232.91;4916800;29;20051;-52
2021/04/27 08:03:33;;;;;;;9.38;2.90;;;;;;;10.82;36.44;101230.59;4898714;29;20063;-53
2021/04/27 08:06:00;;;;;;;5.30;3.10;;;;;;;11.01;37.70;101227.72;4916394;29;20076;-52
2021/04/27 08:08:26;;;;;;;10.13;3.05;;;;;;;11.36;35.63;101231.75;4916649;29;20431;-52
2021/04/27 08:10:55;;;;;;;8.02;2.90;;;;;;;11.39;34.57;101231.56;4916854;29;20048;-52
2021/04/27 08:13:21;;;;;;;4.78;2.50;;;;;;;11.66;33.97;101227.19;4930765;29;20134;-51
2021/04/27 08:15:48;;;;;;;7.13;2.83;;;;;;;11.89;34.27;101229.28;4915510;29;20055;-52
2021/04/27 08:18:15;;;;;;;4.97;2.95;;;;;;;11.99;34.79;101225.97;4915281;29;20423;-51
2021/04/27 08:20:42;;;;;;;7.57;2.72;;;;;;;12.14;34.01;101226.78;4914236;29;20504;-53
2021/04/27 08:23:10;;;;;;;6.90;2.75;;;;;;;12.30;32.72;101225.78;4916440;29;20060;-48
2021/04/27 08:25:56;;;;;;;5.90;3.00;;;;;;;12.57;31.69;101222.22;4915690;29;20063;-50
2021/04/27 08:28:23;;;;;;;7.68;3.20;;;;;;;12.61;31.69;101223.69;4915247;29;20055;-50
2021/04/27 08:30:50;;;;;;;6.20;2.80;;;;;;;12.76;32.51;101220.03;4914746;29;20379;-51
2021/04/27 08:33:16;;;;;;;5.35;2.92;;;;;;;13.08;33.48;101216.13;4914677;29;20175;-51
2021/04/27 08:35:44;;;;;;;8.38;3.13;;;;;;;13.22;32.49;101218.63;4913477;29;20467;-47
2021/04/27 08:38:10;;;;;;;7.72;3.40;;;;;;;13.21;32.45;101216.97;4915185;29;20059;-52
2021/04/27 08:40:37;;;;;;;5.90;3.00;;;;;;;13.40;31.32;101218.31;4915703;29;20052;-53
2021/04/27 08:43:04;;;;;;;6.85;2.90;;;;;;;13.55;32.07;101219.00;4916302;29;20051;-50
2021/04/27 08:45:30;;;;;;;6.30;3.08;;;;;;;13.49;31.14;101220.31;4915532;29;20060;-51
2021/04/27 08:47:56;;;;;;;5.68;3.13;;;;;;;13.66;31.76;101219.06;4913289;29;20513;-53
2021/04/27 08:50:23;;;;;;;7.00;3.25;;;;;;;13.79;31.02;101208.47;4913279;29;20078;-50
2021/04/27 08:52:50;;;;;;;5.93;3.00;;;;;;;13.87;30.31;101203.47;4915940;29;20075;-53
2021/04/27 08:55:16;;;;;;;5.82;2.47;;;;;;;14.12;29.84;101201.66;4899310;29;20548;-49
2021/04/27 08:57:43;;;;;;;7.57;3.17;;;;;;;14.27;29.79;101184.63;4917407;29;20054;-53
2021/04/27 09:00:16;;;;;;;6.72;3.03;;;;;;;14.44;28.98;101188.66;4916011;29;20048;-48
2021/04/27 09:02:43;;;;;;;;;;;;;;;14.52;28.13;101190.72;4916031;29;20044;-53
2021/04/27 09:05:21;;;;;;;5.07;2.55;;;;;;;14.54;27.88;101194.06;4913229;29;20045;-53
2021/04/27 09:07:48;;;;;;;6.30;2.67;;;;;;;14.66;28.04;101193.16;4915979;29;20488;-48
2021/04/27 09:10:19;;;;;;;6.25;2.80;;;;;;;14.73;26.50;101196.19;4914381;29;20044;-51
2021/04/27 09:12:50;;;;;;;5.68;2.70;;;;;;;14.85;26.36;101191.75;4915870;29;20059;-51
2021/04/27 09:15:24;;;;;;;5.53;2.90;;;;;;;15.01;26.20;101184.28;4917694;29;20051;-51
2021/04/27 09:17:51;;;;;;;6.03;2.53;;;;;;;15.11;25.56;101189.72;4895226;29;20097;-52
2021/04/27 09:20:17;;;;;;;5.35;2.63;;;;;;;15.15;25.88;101192.97;4894735;29;20110;-52
2021/04/27 09:22:44;;;;;;;3.88;2.20;;;;;;;15.23;25.64;101184.38;4896701;29;20072;-51
2021/04/27 09:25:12;;;;;;;5.60;2.60;;;;;;;15.38;25.87;101186.66;4911240;29;20444;-55
2021/04/27 09:27:48;;;;;;;9.32;2.80;;;;;;;15.51;25.57;101193.63;4896770;29;20049;-53
2021/04/27 09:30:15;;;;;;;6.75;2.70;;;;;;;15.70;25.09;101182.38;4881957;29;20392;-54
2021/04/27 09:33:00;;;;;;;8.82;2.50;;;;;;;15.77;24.73;101177.41;4898642;29;20095;-52
2021/04/27 09:35:39;;;;;;;8.80;2.78;;;;;;;15.89;24.89;101179.91;4912044;29;20445;-52
2021/04/27 09:38:19;;;;;;;7.80;2.33;;;;;;;16.05;24.09;101166.25;4911243;29;20049;-54
2021/04/27 09:40:53;;;;;;;8.48;2.45;;;;;;;16.25;24.47;101158.41;4896016;29;20492;-53
2021/04/27 09:43:23;;;;;;;5.55;2.60;;;;;;;16.28;24.02;101159.97;4912780;29;20049;-50
2021/04/27 09:45:51;;;;;;;4.88;2.42;;;;;;;16.62;24.80;101154.44;4912830;29;20044;-53
2021/04/27 09:48:43;;;;;;;5.05;2.65;;;;;;;16.52;23.83;101149.09;4895638;29;20041;-54
2021/04/27 09:51:32;;;;;;;5.68;2.45;;;;;;;16.43;23.98;101149.88;4895947;29;20058;-48
2021/04/27 09:54:12;;;;;;;5.90;2.53;;;;;;;16.51;22.55;101148.25;4896398;29;20060;-53
2021/04/27 09:56:47;;;;;;;5.53;2.47;;;;;;;16.99;23.45;101146.00;4897428;29;20100;-51
2021/04/27 09:59:28;;;;;;;6.15;3.08;;;;;;;16.83;22.58;101143.78;4910016;29;20056;-54
2021/04/27 10:01:56;;;;;;;5.78;2.50;;;;;;;16.65;23.20;101140.91;4895170;29;20041;-55
2021/04/27 10:04:26;;;;;;;6.85;2.88;;;;;;;16.70;22.02;101136.88;4911641;29;20053;-53
2021/04/27 10:07:00;;;;;;;7.60;2.38;;;;;;;16.71;22.37;101135.06;4895392;29;20507;-52
2021/04/27 10:09:27;;;;;;;6.07;2.90;;;;;;;16.79;22.29;101129.94;4895058;29;20526;-52
2021/04/27 10:11:55;;;;;;;5.45;2.50;;;;;;;17.05;22.74;101119.69;4910515;29;20044;-49
2021/04/27 10:14:22;;;;;;;7.68;2.22;;;;;;;16.84;21.74;101121.56;4895374;29;20056;-50
2021/04/27 10:16:49;;;;;;;5.28;2.60;;;;;;;16.94;21.66;101111.84;4896703;29;20539;-55
2021/04/27 10:19:15;;;;;;;5.05;2.40;;;;;;;16.74;22.36;101118.84;4894675;29;20519;-52
2021/04/27 10:21:42;;;;;;;3.95;2.42;;;;;;;17.34;21.24;101110.97;4895397;29;20400;-51
2021/04/27 10:24:13;;;;;;;6.82;2.42;;;;;;;17.32;20.12;101102.28;4910669;29;20088;-52
2021/04/27 10:26:43;;;;;;;3.85;2.20;;;;;;;17.49;20.74;101114.06;4895066;29;20411;-49
2021/04/27 10:29:23;;;;;;;4.35;2.58;;;;;;;17.78;21.08;101115.88;4910077;29;20048;-54
2021/04/27 10:32:27;;;;;;;8.13;2.67;;;;;;;17.68;21.22;101113.22;4895856;29;20053;-51
2021/04/27 10:34:56;;;;;;;6.93;2.70;;;;;;;17.39;21.02;101106.06;4893733;29;20378;-46
2021/04/27 10:37:28;;;;;;;6.68;2.55;;;;;;;17.64;21.21;101103.00;4895075;29;20142;-54
2021/04/27 10:39:54;;;;;;;4.22;2.30;;;;;;;18.06;20.95;101100.91;4910900;29;20054;-52
2021/04/27 10:42:30;;;;;;;5.13;2.83;;;;;;;18.21;20.91;101100.44;4897261;29;20100;-55
2021/04/27 10:45:05;;;;;;;5.82;2.60;;;;;;;17.94;21.34;101104.69;4897330;29;20048;-50
2021/04/27 10:47:43;;;;;;;6.45;2.88;;;;;;;18.41;20.32;101088.75;4894561;29;20059;-54
2021/04/27 10:50:26;;;;;;;8.18;2.80;;;;;;;17.95;21.46;101078.94;4892476;29;20448;-52
2021/04/27 10:52:52;;;;;;;4.32;2.33;;;;;;;18.28;20.77;101074.91;4894487;29;20404;-52
2021/04/27 10:55:29;;;;;;;5.90;2.65;;;;;;;18.40;21.80;101088.91;4910060;29;20131;-55
2021/04/27 10:57:58;;;;;;;5.57;2.97;;;;;;;18.42;20.87;101074.47;4895489;29;20056;-55
2021/04/27 11:00:44;;;;;;;5.63;2.63;;;;;;;18.62;20.29;101073.56;4897131;29;20040;-54
2021/04/27 11:03:14;;;;;;;9.93;3.20;;;;;;;18.37;19.91;101076.72;4911562;29;20072;-54
2021/04/27 11:06:00;;;;;;;6.90;2.88;;;;;;;18.78;20.47;101080.91;4896378;29;20514;-47
2021/04/27 11:08:45;;;;;;;5.85;2.75;;;;;;;18.66;19.83;101069.59;4894594;29;20055;-51
2021/04/27 11:11:28;;;;;;;6.30;3.00;;;;;;;18.87;20.21;101074.66;4913571;29;20052;-52
2021/04/27 11:14:16;;;;;;;4.85;2.33;;;;;;;18.92;19.09;101081.28;4898932;29;20457;-55
2021/04/27 11:16:46;;;;;;;5.68;2.92;;;;;;;19.24;18.70;101066.63;4899131;29;20067;-50
2021/04/27 11:19:18;;;;;;;5.40;2.95;;;;;;;18.91;19.50;101065.44;4912008;29;20067;-55
2021/04/27 11:21:49;;;;;;;8.57;2.92;;;;;;;18.93;18.79;101068.78;4899145;29;20453;-55
2021/04/27 11:24:34;;;;;;;5.38;2.70;;;;;;;19.05;18.84;101061.44;4898791;29;20049;-55
2021/04/27 11:27:01;;;;;;;6.28;2.88;;;;;;;19.41;19.11;101048.97;4899060;29;20059;-51
2021/04/27 11:29:29;;;;;;;6.50;3.15;;;;;;;19.96;18.75;101043.56;4898870;29;20053;-52
2021/04/27 11:32:15;;;;;;;5.55;2.97;;;;;;;20.00;18.46;101039.59;4899123;29;20229;-52
2021/04/27 11:35:06;;;;;;;6.88;3.83;;;;;;;20.21;18.92;101044.56;4896502;29;20056;-56
2021/04/27 11:37:33;;;;;;;5.68;3.08;;;;;;;20.10;17.89;101049.16;4899645;29;20058;-52